Time;durP1;ratioP1;P1;durP2;ratioP2;P2;SDS_P1;SDS_P2;PMS_P1;PMS_P2;Temp;Humidity;BMP_temperature;BMP_pressure;BME280_temperature;BME280_humidity;BME280_pressure;Samples;Min_cycle;Max_cycle;Signal;HPM_P1;HPM_P2
2022/12/22 03:26:18;;;;;;;;;;;;;;;;;;1047693;28;3881;-49
2022/12/22 03:26:48;;;;;;;;;;;;;;;;;;1047737;28;2387;-49
2022/12/22 03:27:18;;;;;;;;;;;;;;;;;;1047124;28;3822;-50
2022/12/22 03:27:48;;;;;;;;;;;;;;;;;;1049423;28;2608;-51
2022/12/22 03:28:20;;;;;;;;;;;;;;;;;;1047247;28;3914;-51
2022/12/22 03:28:50;;;;;;;;;;;;;;;;;;1049750;28;2752;-48
2022/12/22 03:29:21;;;;;;;;;;;;;;;;;;1049706;28;3976;-52
2022/12/22 03:29:51;;;;;;;;;;;;;;;;;;1052007;28;1934;-48
2022/12/22 03:30:21;;;;;;;;;;;;;;;;;;1046554;28;3976;-51
2022/12/22 03:31:00;;;;;;;;;;;;;;;;;;1048938;28;1625;-50
2022/12/22 03:31:30;;;;;;;;;;;;;;;;;;1047215;28;3804;-49
2022/12/22 03:32:00;;;;;;;;;;;;;;;;;;1052186;28;2233;-50
2022/12/22 03:32:30;;;;;;;;;;;;;;;;;;1050651;28;3781;-50
2022/12/22 03:33:01;;;;;;;;;;;;;;;;;;1050507;28;3039;-53
2022/12/22 03:33:31;;;;;;;;;;;;;;;;;;1050611;28;3869;-50
2022/12/22 03:34:01;;;;;;;;;;;;;;;;;;1050498;28;2645;-51
2022/12/22 03:34:32;;;;;;;;;;;;;;;;;;1047663;28;4167;-52
2022/12/22 03:35:02;;;;;;;;;;;;;;;;;;1043982;28;2381;-53
2022/12/22 03:35:32;;;;;;;;;;;;;;;;;;1043315;28;4131;-50
2022/12/22 03:36:03;;;;;;;;;;;;;;;;;;1044125;28;2972;-52
2022/12/22 03:36:33;;;;;;;;;;;;;;;;;;1046448;28;4070;-48
2022/12/22 03:37:04;;;;;;;;;;;;;;;;;;1051109;28;1813;-49
2022/12/22 03:37:34;;;;;;;;;;;;;;;;;;1048836;28;4251;-54
2022/12/22 03:38:04;;;;;;;;;;;;;;;;;;1049758;28;2494;-48
2022/12/22 03:38:34;;;;;;;;;;;;;;;;;;1047689;28;3867;-51
2022/12/22 03:39:05;;;;;;;;;;;;;;;;;;1050833;28;2343;-51
2022/12/22 03:39:35;;;;;;;;;;;;;;;;;;1048381;28;4367;-52
2022/12/22 03:40:06;;;;;;;;;;;;;;;;;;1047268;28;1949;-51
2022/12/22 03:40:36;;;;;;;;;;;;;;;;;;1047495;28;3839;-52
2022/12/22 03:41:06;;;;;;;;;;;;;;;;;;1048026;28;2649;-49
2022/12/22 03:46:41;;;;;;;;;;;;;;;;;;1047219;28;4818;-50
2022/12/22 03:47:25;;;;;;;;;;;;;;;;;;1047984;28;2685;-54
2022/12/22 03:48:02;;;;;;;;;;;;;;;;;;1048410;28;3923;-51
2022/12/22 03:48:33;;;;;;;;;;;;;;;;;;1046035;28;3975;-53
2022/12/22 03:49:09;;;;;;;;;;;;;;;;;;1048495;28;2801;-52
2022/12/22 03:49:40;;;;;;;;;;;;;;;;;;1050617;28;3715;-53
2022/12/22 03:50:10;;;;;;;;;;;;;;;;;;1051226;28;1698;-52
2022/12/22 03:50:42;;;;;;;;;;;;;;;;;;1047533;28;3731;-53
2022/12/22 03:51:12;;;;;;;;;;;;;;;;;;1050771;28;2668;-53
2022/12/22 03:51:43;;;;;;;;;;;;;;;;;;1049369;28;3728;-55
2022/12/22 03:52:14;;;;;;;;;;;;;;;;;;1047529;28;4392;-51
2022/12/22 03:52:44;;;;;;;;;;;;;;;;;;1047325;28;1644;-48
2022/12/22 03:53:14;;;;;;;;;;;;;;;;;;1047574;28;3799;-54
2022/12/22 03:53:44;;;;;;;;;;;;;;;;;;1044178;28;2588;-51
2022/12/22 03:54:16;;;;;;;;;;;;;;;;;;1045069;28;3949;-51
2022/12/22 03:54:46;;;;;;;;;;;;;;;;;;1044863;28;1830;-48
2022/12/22 03:55:16;;;;;;;;;;;;;;;;;;1043009;28;4054;-50
2022/12/22 03:55:47;;;;;;;;;;;;;;;;;;1047224;28;1893;-50
2022/12/22 03:56:17;;;;;;;;;;;;;;;;;;1047204;28;3895;-49
2022/12/22 03:56:48;;;;;;;;;;;;;;;;;;1047605;28;1693;-53
2022/12/22 03:57:18;;;;;;;;;;;;;;;;;;1047379;28;3790;-51
2022/12/22 03:57:48;;;;;;;;;;;;;;;;;;1045763;28;2153;-54
2022/12/22 03:58:18;;;;;;;;;;;;;;;;;;1042924;28;3775;-51
2022/12/22 03:58:48;;;;;;;;;;;;;;;;;;1042867;28;2910;-52
2022/12/22 03:59:19;;;;;;;;;;;;;;;;;;1044767;28;3862;-52
2022/12/22 03:59:49;;;;;;;;;;;;;;;;;;1051561;28;2871;-49
2022/12/22 04:00:19;;;;;;;;;;;;;;;;;;1049144;28;4039;-50
2022/12/22 04:00:50;;;;;;;;;;;;;;;;;;1050975;28;2434;-53
2022/12/22 04:01:20;;;;;;;;;;;;;;;;;;1045669;28;4254;-52
2022/12/22 04:01:52;;;;;;;;;;;;;;;;;;1046743;28;1808;-52
2022/12/22 04:02:22;;;;;;;;;;;;;;;;;;1042307;28;3822;-53
2022/12/22 04:02:52;;;;;;;;;;;;;;;;;;1043350;28;1775;-49
2022/12/22 04:03:22;;;;;;;;;;;;;;;;;;1049752;28;4427;-50
2022/12/22 04:03:53;;;;;;;;;;;;;;;;;;1049625;28;2760;-51
2022/12/22 04:04:24;;;;;;;;;;;;;;;;;;1047802;28;3813;-53
2022/12/22 04:04:54;;;;;;;;;;;;;;;;;;1047448;28;1671;-52
2022/12/22 04:05:24;;;;;;;;;;;;;;;;;;1046659;28;3886;-49
2022/12/22 04:05:55;;;;;;;;;;;;;;;;;;1048036;28;1729;-52
2022/12/22 04:06:25;;;;;;;;;;;;;;;;;;1046747;28;4268;-52
2022/12/22 04:06:55;;;;;;;;;;;;;;;;;;1048952;28;2115;-52
2022/12/22 04:07:25;;;;;;;;;;;;;;;;;;1046673;28;4043;-53
2022/12/22 04:07:56;;;;;;;;;;;;;;;;;;1047477;28;1671;-51
2022/12/22 04:08:26;;;;;;;;;;;;;;;;;;1046993;28;3830;-51
2022/12/22 04:08:56;;;;;;;;;;;;;;;;;;1048321;28;2772;-51
2022/12/22 04:09:28;;;;;;;;;;;;;;;;;;1043693;28;4028;-49
2022/12/22 04:13:14;;;;;;;;;;;;;;;;;;1048975;28;4124;-52
2022/12/22 04:13:44;;;;;;;;;;;;;;;;;;1049766;28;2876;-52
2022/12/22 04:14:14;;;;;;;;;;;;;;;;;;1046741;28;3938;-53
2022/12/22 04:14:44;;;;;;;;;;;;;;;;;;1048503;28;1798;-51
2022/12/22 04:15:15;;;;;;;;;;;;;;;;;;1048428;28;4057;-53
2022/12/22 04:15:45;;;;;;;;;;;;;;;;;;1049542;28;2880;-52
2022/12/22 04:16:15;;;;;;;;;;;;;;;;;;1051613;28;4026;-53
2022/12/22 04:16:45;;;;;;;;;;;;;;;;;;1047644;28;2538;-54
2022/12/22 04:17:16;;;;;;;;;;;;;;;;;;1050205;28;4016;-52
2022/12/22 04:17:46;;;;;;;;;;;;;;;;;;1048188;28;1773;-54
2022/12/22 04:18:16;;;;;;;;;;;;;;;;;;1044255;28;3810;-52
2022/12/22 04:18:47;;;;;;;;;;;;;;;;;;1045310;28;2495;-55
2022/12/22 04:19:17;;;;;;;;;;;;;;;;;;1044449;28;3812;-53
2022/12/22 04:19:47;;;;;;;;;;;;;;;;;;1047157;28;1692;-51
2022/12/22 04:20:18;;;;;;;;;;;;;;;;;;1048398;28;3893;-51
2022/12/22 04:20:48;;;;;;;;;;;;;;;;;;1049173;28;2966;-53
2022/12/22 04:21:18;;;;;;;;;;;;;;;;;;1047170;28;4072;-53
2022/12/22 04:21:49;;;;;;;;;;;;;;;;;;1049517;28;2254;-53
2022/12/22 04:22:19;;;;;;;;;;;;;;;;;;1050236;28;4237;-51
2022/12/22 04:22:49;;;;;;;;;;;;;;;;;;1048942;28;2472;-55
2022/12/22 04:23:19;;;;;;;;;;;;;;;;;;1046930;28;3822;-51
2022/12/22 04:23:50;;;;;;;;;;;;;;;;;;1048978;28;2785;-53
2022/12/22 04:24:21;;;;;;;;;;;;;;;;;;1046611;28;3754;-51
2022/12/22 04:24:51;;;;;;;;;;;;;;;;;;1049098;28;2726;-52
2022/12/22 04:25:22;;;;;;;;;;;;;;;;;;1047882;28;4044;-54
2022/12/22 04:25:52;;;;;;;;;;;;;;;;;;1049024;28;2237;-54
2022/12/22 04:26:23;;;;;;;;;;;;;;;;;;1047032;28;4424;-53
2022/12/22 04:26:54;;;;;;;;;;;;;;;;;;1044854;28;2405;-53
2022/12/22 04:27:24;;;;;;;;;;;;;;;;;;1039377;28;4467;-53
2022/12/22 04:27:54;;;;;;;;;;;;;;;;;;1039693;28;2608;-53
2022/12/22 04:28:24;;;;;;;;;;;;;;;;;;1041227;28;4053;-51
2022/12/22 04:28:55;;;;;;;;;;;;;;;;;;1044906;28;2401;-52
2022/12/22 04:29:25;;;;;;;;;;;;;;;;;;1050216;28;3887;-49
2022/12/22 04:29:55;;;;;;;;;;;;;;;;;;1051296;28;1781;-51
2022/12/22 04:30:25;;;;;;;;;;;;;;;;;;1047926;28;3973;-51
2022/12/22 04:30:56;;;;;;;;;;;;;;;;;;1049990;28;2466;-55
2022/12/22 04:31:26;;;;;;;;;;;;;;;;;;1048575;28;3941;-50
2022/12/22 04:31:56;;;;;;;;;;;;;;;;;;1047869;28;2236;-55
2022/12/22 04:32:26;;;;;;;;;;;;;;;;;;1048067;28;4112;-53
2022/12/22 04:32:57;;;;;;;;;;;;;;;;;;1045806;28;2741;-52
2022/12/22 04:33:27;;;;;;;;;;;;;;;;;;1045669;28;3810;-49
2022/12/22 04:33:57;;;;;;;;;;;;;;;;;;1042730;28;2786;-49
2022/12/22 04:34:27;;;;;;;;;;;;;;;;;;1044770;28;3949;-53
2022/12/22 04:34:58;;;;;;;;;;;;;;;;;;1050765;28;2489;-55
2022/12/22 04:35:28;;;;;;;;;;;;;;;;;;1044950;28;4523;-52
2022/12/22 04:35:58;;;;;;;;;;;;;;;;;;1046348;28;2428;-50
2022/12/22 04:36:35;;;;;;;;;;;;;;;;;;1045562;28;3734;-50
2022/12/22 04:37:06;;;;;;;;;;;;;;;;;;1042278;28;2659;-53
2022/12/22 04:37:36;;;;;;;;;;;;;;;;;;1037552;28;3829;-49
2022/12/22 04:38:06;;;;;;;;;;;;;;;;;;1046588;28;1762;-54
2022/12/22 04:38:37;;;;;;;;;;;;;;;;;;1046365;28;3899;-54
2022/12/22 04:39:07;;;;;;;;;;;;;;;;;;1043748;28;2582;-52
2022/12/22 04:39:37;;;;;;;;;;;;;;;;;;1047619;28;4194;-52
2022/12/22 04:40:08;;;;;;;;;;;;;;;;;;1046607;28;2629;-50
2022/12/22 04:40:38;;;;;;;;;;;;;;;;;;1048768;28;3905;-54
2022/12/22 04:41:08;;;;;;;;;;;;;;;;;;1049247;28;2478;-51
2022/12/22 04:41:38;;;;;;;;;;;;;;;;;;1050012;28;3948;-49
2022/12/22 04:42:09;;;;;;;;;;;;;;;;;;1051852;28;1622;-55
2022/12/22 04:42:39;;;;;;;;;;;;;;;;;;1047725;28;3946;-51
2022/12/22 04:43:09;;;;;;;;;;;;;;;;;;1048086;28;2875;-50
2022/12/22 04:43:39;;;;;;;;;;;;;;;;;;1046060;28;3788;-52
2022/12/22 04:44:10;;;;;;;;;;;;;;;;;;1051605;28;1676;-53
2022/12/22 04:44:40;;;;;;;;;;;;;;;;;;1049497;28;3844;-51
2022/12/22 04:45:10;;;;;;;;;;;;;;;;;;1050209;28;2356;-52
2022/12/22 04:45:40;;;;;;;;;;;;;;;;;;1046971;28;3735;-50
2022/12/22 04:46:11;;;;;;;;;;;;;;;;;;1051304;28;1209;-52
2022/12/22 04:46:41;;;;;;;;;;;;;;;;;;1050720;28;3872;-52
2022/12/22 04:47:25;;;;;;;;;;;;;;;;;;1049215;28;2990;-55
2022/12/22 04:48:03;;;;;;;;;;;;;;;;;;1041732;28;3864;-53
2022/12/22 04:48:33;;;;;;;;;;;;;;;;;;1039481;28;4045;-54
2022/12/22 04:49:03;;;;;;;;;;;;;;;;;;1040711;28;2209;-51
2022/12/22 04:49:34;;;;;;;;;;;;;;;;;;1039816;28;3891;-51
2022/12/22 04:50:04;;;;;;;;;;;;;;;;;;1041786;28;2908;-52
2022/12/22 04:50:35;;;;;;;;;;;;;;;;;;1036369;28;3894;-52
2022/12/22 04:51:05;;;;;;;;;;;;;;;;;;1034419;28;1733;-55
2022/12/22 04:51:35;;;;;;;;;;;;;;;;;;1035364;28;3788;-50
2022/12/22 04:52:06;;;;;;;;;;;;;;;;;;1038376;28;2778;-51
2022/12/22 04:52:36;;;;;;;;;;;;;;;;;;1040180;28;4004;-52
2022/12/22 04:53:06;;;;;;;;;;;;;;;;;;1040613;28;2149;-50
2022/12/22 04:53:36;;;;;;;;;;;;;;;;;;1041254;28;4160;-53
2022/12/22 04:54:07;;;;;;;;;;;;;;;;;;1040196;28;2551;-50
2022/12/22 04:54:37;;;;;;;;;;;;;;;;;;1039844;28;3855;-51
2022/12/22 04:55:08;;;;;;;;;;;;;;;;;;1039389;28;2000;-53
2022/12/22 04:55:43;;;;;;;;;;;;;;;;;;1039040;28;4011;-51
2022/12/22 04:56:13;;;;;;;;;;;;;;;;;;1040420;28;4367;-52
2022/12/22 04:56:44;;;;;;;;;;;;;;;;;;1042545;28;2087;-54
2022/12/22 04:57:14;;;;;;;;;;;;;;;;;;1039731;28;3872;-52
2022/12/22 04:57:44;;;;;;;;;;;;;;;;;;1039533;28;2463;-51
2022/12/22 04:58:14;;;;;;;;;;;;;;;;;;1036562;28;4027;-51
2022/12/22 04:58:45;;;;;;;;;;;;;;;;;;1042631;28;2027;-52
2022/12/22 04:59:15;;;;;;;;;;;;;;;;;;1038653;28;3880;-54
2022/12/22 04:59:46;;;;;;;;;;;;;;;;;;1041638;28;2932;-50
2022/12/22 05:00:16;;;;;;;;;;;;;;;;;;1039852;28;3968;-51
2022/12/22 05:00:46;;;;;;;;;;;;;;;;;;1040843;28;1960;-50
2022/12/22 05:01:17;;;;;;;;;;;;;;;;;;1041365;28;4143;-50
2022/12/22 05:01:47;;;;;;;;;;;;;;;;;;1038052;28;1905;-51
2022/12/22 05:02:17;;;;;;;;;;;;;;;;;;1039429;28;4184;-51
2022/12/22 05:02:48;;;;;;;;;;;;;;;;;;1042920;28;2120;-53
2022/12/22 05:03:18;;;;;;;;;;;;;;;;;;1041751;28;3841;-49
2022/12/22 05:03:48;;;;;;;;;;;;;;;;;;1039910;28;2720;-50
2022/12/22 05:04:19;;;;;;;;;;;;;;;;;;1041111;28;4302;-51
2022/12/22 05:04:49;;;;;;;;;;;;;;;;;;1038534;28;2177;-52
2022/12/22 05:05:19;;;;;;;;;;;;;;;;;;1038736;28;3876;-52
2022/12/22 05:05:49;;;;;;;;;;;;;;;;;;1038025;28;2827;-50
2022/12/22 05:06:20;;;;;;;;;;;;;;;;;;1040819;28;4023;-50
2022/12/22 05:06:50;;;;;;;;;;;;;;;;;;1041137;28;2185;-53
2022/12/22 05:07:20;;;;;;;;;;;;;;;;;;1039805;28;3939;-51
2022/12/22 05:07:51;;;;;;;;;;;;;;;;;;1040143;28;2831;-54
2022/12/22 05:08:21;;;;;;;;;;;;;;;;;;1040275;28;3828;-53
2022/12/22 05:08:51;;;;;;;;;;;;;;;;;;1039495;28;2422;-51
2022/12/22 05:09:21;;;;;;;;;;;;;;;;;;1039009;28;4030;-51
2022/12/22 05:09:51;;;;;;;;;;;;;;;;;;1038721;28;1877;-51
2022/12/22 05:10:22;;;;;;;;;;;;;;;;;;1039021;28;4192;-55
2022/12/22 05:10:52;;;;;;;;;;;;;;;;;;1040695;28;2792;-54
2022/12/22 05:11:22;;;;;;;;;;;;;;;;;;1039773;28;3873;-53
2022/12/22 05:11:52;;;;;;;;;;;;;;;;;;1041425;28;1854;-54
2022/12/22 05:13:12;;;;;;;;;;;;;;;;;;1039825;28;2041;-53
2022/12/22 05:13:42;;;;;;;;;;;;;;;;;;1040377;28;4024;-52
2022/12/22 05:14:12;;;;;;;;;;;;;;;;;;1040646;28;2622;-54
2022/12/22 05:14:42;;;;;;;;;;;;;;;;;;1042670;28;3868;-52
2022/12/22 05:15:13;;;;;;;;;;;;;;;;;;1040538;28;4391;-51
2022/12/22 05:15:43;;;;;;;;;;;;;;;;;;1037659;28;2933;-50
2022/12/22 05:16:14;;;;;;;;;;;;;;;;;;1041365;28;4231;-51
2022/12/22 05:16:45;;;;;;;;;;;;;;;;;;1043159;28;1106;-51
2022/12/22 05:17:15;;;;;;;;;;;;;;;;;;1040978;28;3859;-50
2022/12/22 05:17:45;;;;;;;;;;;;;;;;;;1040153;28;2570;-53
2022/12/22 05:18:15;;;;;;;;;;;;;;;;;;1038942;28;4067;-53
2022/12/22 05:18:46;;;;;;;;;;;;;;;;;;1042659;28;2059;-50
2022/12/22 05:19:16;;;;;;;;;;;;;;;;;;1037555;28;4381;-52
2022/12/22 05:19:46;;;;;;;;;;;;;;;;;;1040505;28;2572;-50
2022/12/22 05:20:17;;;;;;;;;;;;;;;;;;1031601;28;3984;-51
2022/12/22 05:20:47;;;;;;;;;;;;;;;;;;1038396;28;2484;-53
2022/12/22 05:21:19;;;;;;;;;;;;;;;;;;1035754;28;4051;-50
2022/12/22 05:21:50;;;;;;;;;;;;;;;;;;1035562;28;2825;-50
2022/12/22 05:22:20;;;;;;;;;;;;;;;;;;1039762;28;3929;-49
2022/12/22 05:22:51;;;;;;;;;;;;;;;;;;1040399;28;1867;-52
2022/12/22 05:23:21;;;;;;;;;;;;;;;;;;1039841;28;4126;-49
2022/12/22 05:23:51;;;;;;;;;;;;;;;;;;1040297;28;3125;-50
2022/12/22 05:24:21;;;;;;;;;;;;;;;;;;1038551;28;3760;-50
2022/12/22 05:24:52;;;;;;;;;;;;;;;;;;1038129;28;1760;-52
2022/12/22 05:25:22;;;;;;;;;;;;;;;;;;1038542;28;4047;-52
2022/12/22 05:25:52;;;;;;;;;;;;;;;;;;1039987;28;2700;-53
2022/12/22 05:26:22;;;;;;;;;;;;;;;;;;1040633;28;4039;-54
2022/12/22 05:27:00;;;;;;;;;;;;;;;;;;1038405;28;2590;-54
2022/12/22 05:27:30;;;;;;;;;;;;;;;;;;1041500;28;3952;-52
2022/12/22 05:28:00;;;;;;;;;;;;;;;;;;1042328;28;2327;-53
2022/12/22 05:28:33;;;;;;;;;;;;;;;;;;1041590;28;4048;-51
2022/12/22 05:29:03;;;;;;;;;;;;;;;;;;1039883;28;2907;-53
2022/12/22 05:29:33;;;;;;;;;;;;;;;;;;1038873;28;3799;-54
2022/12/22 05:30:04;;;;;;;;;;;;;;;;;;1041648;28;2734;-51
2022/12/22 05:30:34;;;;;;;;;;;;;;;;;;1042112;28;3957;-54
2022/12/22 05:31:06;;;;;;;;;;;;;;;;;;1040373;28;2908;-51
2022/12/22 05:31:36;;;;;;;;;;;;;;;;;;1041184;28;3760;-52
2022/12/22 05:32:07;;;;;;;;;;;;;;;;;;1039660;28;2165;-51
2022/12/22 05:32:37;;;;;;;;;;;;;;;;;;1039247;28;4167;-51
2022/12/22 05:33:07;;;;;;;;;;;;;;;;;;1038821;28;2897;-55
2022/12/22 05:33:37;;;;;;;;;;;;;;;;;;1040528;28;4043;-52
2022/12/22 05:34:08;;;;;;;;;;;;;;;;;;1039697;28;2352;-50
2022/12/22 05:34:38;;;;;;;;;;;;;;;;;;1041676;28;3870;-52
2022/12/22 05:35:09;;;;;;;;;;;;;;;;;;1040448;28;2533;-54
2022/12/22 05:35:39;;;;;;;;;;;;;;;;;;1040836;28;3775;-51
2022/12/22 05:36:09;;;;;;;;;;;;;;;;;;1039909;28;2324;-50
2022/12/22 05:36:39;;;;;;;;;;;;;;;;;;1041807;28;3709;-50
2022/12/22 05:37:10;;;;;;;;;;;;;;;;;;1041075;28;1780;-49
2022/12/22 05:37:40;;;;;;;;;;;;;;;;;;1038151;28;3944;-52
2022/12/22 05:38:10;;;;;;;;;;;;;;;;;;1039284;28;1740;-54
2022/12/22 05:38:41;;;;;;;;;;;;;;;;;;1039515;28;4147;-51
2022/12/22 05:39:11;;;;;;;;;;;;;;;;;;1041750;28;2900;-49
2022/12/22 05:39:41;;;;;;;;;;;;;;;;;;1041095;28;3799;-50
2022/12/22 05:40:11;;;;;;;;;;;;;;;;;;1038654;28;2320;-51
2022/12/22 05:40:48;;;;;;;;;;;;;;;;;;1038395;28;4160;-50
2022/12/22 05:41:19;;;;;;;;;;;;;;;;;;1042253;28;4099;-49
2022/12/22 05:41:49;;;;;;;;;;;;;;;;;;1040458;28;2857;-49
2022/12/22 05:42:34;;;;;;;;;;;;;;;;;;1038338;28;3802;-53
2022/12/22 05:43:04;;;;;;;;;;;;;;;;;;1041595;28;2045;-50
2022/12/22 05:43:35;;;;;;;;;;;;;;;;;;1040441;28;3759;-55
2022/12/22 05:44:05;;;;;;;;;;;;;;;;;;1040052;28;2813;-51
2022/12/22 05:44:35;;;;;;;;;;;;;;;;;;1038601;28;3916;-49
2022/12/22 05:45:17;;;;;;;;;;;;;;;;;;1038895;28;2982;-52
2022/12/22 05:45:47;;;;;;;;;;;;;;;;;;1038854;28;3854;-51
2022/12/22 05:46:17;;;;;;;;;;;;;;;;;;1038710;28;4190;-51
2022/12/22 05:46:51;;;;;;;;;;;;;;;;;;1039291;28;1751;-54
2022/12/22 05:47:34;;;;;;;;;;;;;;;;;;1041320;28;4033;-52
2022/12/22 05:48:11;;;;;;;;;;;;;;;;;;1046958;28;1381;-52
2022/12/22 05:48:42;;;;;;;;;;;;;;;;;;1051156;28;3933;-50
2022/12/22 05:49:12;;;;;;;;;;;;;;;;;;1049508;28;2830;-55
2022/12/22 05:49:42;;;;;;;;;;;;;;;;;;1051101;28;4035;-54
2022/12/22 05:50:13;;;;;;;;;;;;;;;;;;1051054;28;3927;-52
2022/12/22 05:50:44;;;;;;;;;;;;;;;;;;1047794;28;2903;-52
2022/12/22 05:51:14;;;;;;;;;;;;;;;;;;1049468;28;4374;-55
2022/12/22 05:51:45;;;;;;;;;;;;;;;;;;1046642;28;1683;-49
2022/12/22 05:52:15;;;;;;;;;;;;;;;;;;1046966;28;4147;-50
2022/12/22 05:52:46;;;;;;;;;;;;;;;;;;1046537;28;1935;-54
2022/12/22 05:53:16;;;;;;;;;;;;;;;;;;1047269;28;4203;-51
2022/12/22 05:53:46;;;;;;;;;;;;;;;;;;1049915;28;2113;-50
2022/12/22 05:54:16;;;;;;;;;;;;;;;;;;1050891;28;4314;-52
2022/12/22 05:54:47;;;;;;;;;;;;;;;;;;1051242;28;1937;-52
2022/12/22 05:55:17;;;;;;;;;;;;;;;;;;1050658;28;3976;-55
2022/12/22 05:55:47;;;;;;;;;;;;;;;;;;1049193;28;1545;-52
2022/12/22 05:56:18;;;;;;;;;;;;;;;;;;1051046;28;4394;-53
2022/12/22 05:56:48;;;;;;;;;;;;;;;;;;1049693;28;2113;-54
2022/12/22 05:57:18;;;;;;;;;;;;;;;;;;1047925;28;3978;-51
2022/12/22 05:57:48;;;;;;;;;;;;;;;;;;1048192;28;2154;-55
2022/12/22 05:58:19;;;;;;;;;;;;;;;;;;1047006;28;3843;-54
2022/12/22 05:58:49;;;;;;;;;;;;;;;;;;1048358;28;2300;-51
2022/12/22 05:59:19;;;;;;;;;;;;;;;;;;1049386;28;3870;-51
2022/12/22 05:59:49;;;;;;;;;;;;;;;;;;1048805;28;2882;-51
2022/12/22 06:00:20;;;;;;;;;;;;;;;;;;1047763;28;4046;-50
2022/12/22 06:00:50;;;;;;;;;;;;;;;;;;1048123;28;1798;-54
2022/12/22 06:01:21;;;;;;;;;;;;;;;;;;1048184;28;4250;-54
2022/12/22 06:01:51;;;;;;;;;;;;;;;;;;1052020;28;1988;-53
2022/12/22 06:02:21;;;;;;;;;;;;;;;;;;1050421;28;3796;-54
2022/12/22 06:02:51;;;;;;;;;;;;;;;;;;1052539;28;1817;-49
2022/12/22 06:03:22;;;;;;;;;;;;;;;;;;1049313;28;4043;-50
2022/12/22 06:03:52;;;;;;;;;;;;;;;;;;1050722;28;2761;-50
2022/12/22 06:04:22;;;;;;;;;;;;;;;;;;1051206;28;4133;-52
2022/12/22 06:04:52;;;;;;;;;;;;;;;;;;1052494;28;1724;-50
2022/12/22 06:05:23;;;;;;;;;;;;;;;;;;1051342;28;4044;-55
2022/12/22 06:05:53;;;;;;;;;;;;;;;;;;1052224;28;1664;-50
2022/12/22 06:06:24;;;;;;;;;;;;;;;;;;1041240;28;4159;-51
2022/12/22 06:06:54;;;;;;;;;;;;;;;;;;1043542;28;1965;-52
2022/12/22 06:07:24;;;;;;;;;;;;;;;;;;1042749;28;5149;-51
2022/12/22 06:07:54;;;;;;;;;;;;;;;;;;1041647;28;2806;-50
2022/12/22 06:08:25;;;;;;;;;;;;;;;;;;1047406;28;3874;-51
2022/12/22 06:08:55;;;;;;;;;;;;;;;;;;1048906;28;2261;-50
2022/12/22 06:09:25;;;;;;;;;;;;;;;;;;1048910;28;3801;-51
2022/12/22 06:09:55;;;;;;;;;;;;;;;;;;1047729;28;2507;-49
2022/12/22 06:10:26;;;;;;;;;;;;;;;;;;1049093;28;3818;-51
2022/12/22 06:10:57;;;;;;;;;;;;;;;;;;1044516;28;2128;-49
2022/12/22 06:11:27;;;;;;;;;;;;;;;;;;1043086;28;4143;-52
2022/12/22 06:11:57;;;;;;;;;;;;;;;;;;1044749;28;2242;-53
2022/12/22 06:12:27;;;;;;;;;;;;;;;;;;1046177;28;3777;-54
2022/12/22 06:12:58;;;;;;;;;;;;;;;;;;1049079;28;2411;-53
2022/12/22 06:13:28;;;;;;;;;;;;;;;;;;1045949;28;4808;-51
2022/12/22 06:13:58;;;;;;;;;;;;;;;;;;1042412;28;2761;-49
2022/12/22 06:14:28;;;;;;;;;;;;;;;;;;1042949;28;4402;-50
2022/12/22 06:14:59;;;;;;;;;;;;;;;;;;1042303;28;3053;-52
2022/12/22 06:15:29;;;;;;;;;;;;;;;;;;1044924;28;4381;-51
2022/12/22 06:15:59;;;;;;;;;;;;;;;;;;1043031;28;2169;-51
2022/12/22 06:16:29;;;;;;;;;;;;;;;;;;1049336;28;4431;-52
2022/12/22 06:17:00;;;;;;;;;;;;;;;;;;1050801;28;2810;-55
2022/12/22 06:17:30;;;;;;;;;;;;;;;;;;1048821;28;3782;-50
2022/12/22 06:18:00;;;;;;;;;;;;;;;;;;1048557;28;3039;-52
2022/12/22 06:18:31;;;;;;;;;;;;;;;;;;1046957;28;4267;-53
2022/12/22 06:19:01;;;;;;;;;;;;;;;;;;1050239;28;2732;-52
2022/12/22 06:19:31;;;;;;;;;;;;;;;;;;1046848;28;3851;-54
2022/12/22 06:20:02;;;;;;;;;;;;;;;;;;1048701;28;3014;-52
2022/12/22 06:20:32;;;;;;;;;;;;;;;;;;1047993;28;3870;-51
2022/12/22 06:21:03;;;;;;;;;;;;;;;;;;1049620;28;2993;-53
2022/12/22 06:21:33;;;;;;;;;;;;;;;;;;1049517;28;3784;-53
2022/12/22 06:22:03;;;;;;;;;;;;;;;;;;1050165;28;2154;-54
2022/12/22 06:22:34;;;;;;;;;;;;;;;;;;1050681;28;4376;-51
2022/12/22 06:23:04;;;;;;;;;;;;;;;;;;1048530;28;2873;-50
2022/12/22 06:23:34;;;;;;;;;;;;;;;;;;1044195;28;3807;-54
2022/12/22 06:24:05;;;;;;;;;;;;;;;;;;1047918;28;1592;-55
2022/12/22 06:24:35;;;;;;;;;;;;;;;;;;1045809;28;3929;-51
2022/12/22 06:25:05;;;;;;;;;;;;;;;;;;1045645;28;2351;-49
2022/12/22 06:25:36;;;;;;;;;;;;;;;;;;1048364;28;4124;-51
2022/12/22 06:26:06;;;;;;;;;;;;;;;;;;1052398;28;1988;-52
2022/12/22 06:26:36;;;;;;;;;;;;;;;;;;1048090;28;4080;-50
2022/12/22 06:27:07;;;;;;;;;;;;;;;;;;1048132;28;1726;-51
2022/12/22 06:27:37;;;;;;;;;;;;;;;;;;1045527;28;4040;-53
2022/12/22 06:28:08;;;;;;;;;;;;;;;;;;1043141;28;2831;-50
2022/12/22 06:28:38;;;;;;;;;;;;;;;;;;1044249;28;4945;-52
2022/12/22 06:29:08;;;;;;;;;;;;;;;;;;1044009;28;2017;-49
2022/12/22 06:29:39;;;;;;;;;;;;;;;;;;1049370;28;3704;-52
2022/12/22 06:30:09;;;;;;;;;;;;;;;;;;1047215;28;2494;-49
2022/12/22 06:30:39;;;;;;;;;;;;;;;;;;1047481;28;3694;-50
2022/12/22 06:31:09;;;;;;;;;;;;;;;;;;1048675;28;2902;-54
2022/12/22 06:31:40;;;;;;;;;;;;;;;;;;1050312;28;3855;-50
2022/12/22 06:32:10;;;;;;;;;;;;;;;;;;1049993;28;2478;-51
2022/12/22 06:32:40;;;;;;;;;;;;;;;;;;1051866;28;3786;-55
2022/12/22 06:33:11;;;;;;;;;;;;;;;;;;1047697;28;2015;-53
2022/12/22 06:33:41;;;;;;;;;;;;;;;;;;1047939;28;4472;-52
2022/12/22 06:34:11;;;;;;;;;;;;;;;;;;1048999;28;1906;-54
2022/12/22 06:34:41;;;;;;;;;;;;;;;;;;1050174;28;4007;-53
2022/12/22 06:35:12;;;;;;;;;;;;;;;;;;1049731;28;2074;-50
2022/12/22 06:35:42;;;;;;;;;;;;;;;;;;1051584;28;4005;-51
2022/12/22 06:36:12;;;;;;;;;;;;;;;;;;1049707;28;2502;-52
2022/12/22 06:36:46;;;;;;;;;;;;;;;;;;1050892;28;3765;-51
2022/12/22 06:37:16;;;;;;;;;;;;;;;;;;1049842;28;4062;-53
2022/12/22 06:37:46;;;;;;;;;;;;;;;;;;1049720;28;1942;-54
2022/12/22 06:38:17;;;;;;;;;;;;;;;;;;1049962;28;3821;-54
2022/12/22 06:38:47;;;;;;;;;;;;;;;;;;1050245;28;2780;-53
2022/12/22 06:39:24;;;;;;;;;;;;;;;;;;1049882;28;4042;-52
2022/12/22 06:39:54;;;;;;;;;;;;;;;;;;1051542;28;1903;-53
2022/12/22 06:40:24;;;;;;;;;;;;;;;;;;1049225;28;4093;-54
2022/12/22 06:40:54;;;;;;;;;;;;;;;;;;1048173;28;2978;-52
2022/12/22 06:43:08;;;;;;;;;;;;;;;;;;1049024;28;2340;-50
2022/12/22 06:43:38;;;;;;;;;;;;;;;;;;1049841;28;3805;-52
2022/12/22 06:44:09;;;;;;;;;;;;;;;;;;1047659;28;1909;-49
2022/12/22 06:44:39;;;;;;;;;;;;;;;;;;1050748;28;3955;-49
2022/12/22 06:45:09;;;;;;;;;;;;;;;;;;1049161;28;2944;-53
2022/12/22 06:45:41;;;;;;;;;;;;;;;;;;1050011;28;3903;-51
2022/12/22 06:46:11;;;;;;;;;;;;;;;;;;1047646;28;1991;-52
2022/12/22 06:46:41;;;;;;;;;;;;;;;;;;1050066;28;3974;-53
2022/12/22 06:47:11;;;;;;;;;;;;;;;;;;1047469;28;3045;-50
2022/12/22 06:47:55;;;;;;;;;;;;;;;;;;1046765;28;3695;-52
2022/12/22 06:48:32;;;;;;;;;;;;;;;;;;1048788;28;3947;-52
2022/12/22 06:49:03;;;;;;;;;;;;;;;;;;1049653;28;2819;-53
2022/12/22 06:49:33;;;;;;;;;;;;;;;;;;1049329;28;3940;-51
2022/12/22 06:50:04;;;;;;;;;;;;;;;;;;1047264;28;2415;-56
2022/12/22 06:50:34;;;;;;;;;;;;;;;;;;1048792;28;3959;-54
2022/12/22 06:51:05;;;;;;;;;;;;;;;;;;1047231;28;1816;-55
2022/12/22 06:51:35;;;;;;;;;;;;;;;;;;1047663;28;4025;-50
2022/12/22 06:52:08;;;;;;;;;;;;;;;;;;1050781;28;2501;-51
2022/12/22 06:52:38;;;;;;;;;;;;;;;;;;1047692;28;4008;-53
2022/12/22 06:53:09;;;;;;;;;;;;;;;;;;1050229;28;2700;-51
2022/12/22 06:53:39;;;;;;;;;;;;;;;;;;1048374;28;3921;-50
2022/12/22 06:54:10;;;;;;;;;;;;;;;;;;1049551;28;3097;-49
2022/12/22 06:54:40;;;;;;;;;;;;;;;;;;1046325;28;4421;-52
2022/12/22 06:55:10;;;;;;;;;;;;;;;;;;1049982;28;3208;-55
2022/12/22 06:55:40;;;;;;;;;;;;;;;;;;1047044;28;4451;-53
2022/12/22 06:56:11;;;;;;;;;;;;;;;;;;1048821;28;2631;-49
2022/12/22 06:56:41;;;;;;;;;;;;;;;;;;1047971;28;3819;-52
2022/12/22 06:57:11;;;;;;;;;;;;;;;;;;1048202;28;1399;-51
2022/12/22 06:57:41;;;;;;;;;;;;;;;;;;1046899;28;3994;-54
2022/12/22 06:58:12;;;;;;;;;;;;;;;;;;1047583;28;2832;-51
2022/12/22 06:58:42;;;;;;;;;;;;;;;;;;1048663;28;4148;-49
2022/12/22 06:59:13;;;;;;;;;;;;;;;;;;1048798;28;2892;-52
2022/12/22 06:59:43;;;;;;;;;;;;;;;;;;1047519;28;3725;-51
2022/12/22 07:00:13;;;;;;;;;;;;;;;;;;1051630;28;4373;-52
2022/12/22 07:00:47;;;;;;;;;;;;;;;;;;1051113;28;1947;-53
2022/12/22 07:01:17;;;;;;;;;;;;;;;;;;1051204;28;3926;-51
2022/12/22 07:01:47;;;;;;;;;;;;;;;;;;1049466;28;2803;-52
2022/12/22 07:02:18;;;;;;;;;;;;;;;;;;1047362;28;4163;-51
2022/12/22 07:02:48;;;;;;;;;;;;;;;;;;1046811;28;1548;-53
2022/12/22 07:03:18;;;;;;;;;;;;;;;;;;1047332;28;4061;-49
2022/12/22 07:03:49;;;;;;;;;;;;;;;;;;1046041;28;2461;-52
2022/12/22 07:04:20;;;;;;;;;;;;;;;;;;1047753;28;3977;-52
2022/12/22 07:04:50;;;;;;;;;;;;;;;;;;1050424;28;3082;-52
2022/12/22 07:05:22;;;;;;;;;;;;;;;;;;1049556;28;3775;-51
2022/12/22 07:05:52;;;;;;;;;;;;;;;;;;1049176;28;2688;-53
2022/12/22 07:06:23;;;;;;;;;;;;;;;;;;1046614;28;3812;-53
2022/12/22 07:06:53;;;;;;;;;;;;;;;;;;1048304;28;1604;-51
2022/12/22 07:07:23;;;;;;;;;;;;;;;;;;1047482;28;3961;-49
2022/12/22 07:07:53;;;;;;;;;;;;;;;;;;1050662;28;2723;-53
2022/12/22 07:08:24;;;;;;;;;;;;;;;;;;1049786;28;4251;-52
2022/12/22 07:08:54;;;;;;;;;;;;;;;;;;1048067;28;2711;-53
2022/12/22 07:09:24;;;;;;;;;;;;;;;;;;1046347;28;4249;-50
2022/12/22 07:09:55;;;;;;;;;;;;;;;;;;1049241;28;3009;-51
2022/12/22 07:11:15;;;;;;;;;;;;;;;;;;1048308;28;3886;-52